Time;durP1;ratioP1;P1;durP2;ratioP2;P2;SDS_P1;SDS_P2;PMS_P1;PMS_P2;Temp;Humidity;BMP_temperature;BMP_pressure;BME280_temperature;BME280_humidity;BME280_pressure;Samples;Min_cycle;Max_cycle;Signal;HPM_P1;HPM_P2
2022/08/15 00:01:36;;;;;;;15.07;11.50;;;23.30;98.10;;;;;;4991254;28;20041;-69
2022/08/15 00:04:04;;;;;;;12.20;10.90;;;23.30;98.30;;;;;;4963089;28;20405;-67
2022/08/15 00:06:37;;;;;;;13.95;11.23;;;23.30;98.50;;;;;;4989836;28;20051;-67
2022/08/15 00:09:05;;;;;;;12.75;10.95;;;23.30;98.60;;;;;;4990266;28;20053;-67
2022/08/15 00:11:36;;;;;;;14.35;11.15;;;23.20;98.70;;;;;;4978175;28;20061;-67
2022/08/15 00:14:10;;;;;;;13.68;12.10;;;23.20;99.00;;;;;;4969979;28;20446;-67
2022/08/15 00:16:38;;;;;;;12.70;11.35;;;23.00;99.40;;;;;;5003484;28;20051;-67
2022/08/15 00:19:09;;;;;;;13.57;11.57;;;22.90;99.70;;;;;;4980672;28;20074;-68
2022/08/15 00:21:38;;;;;;;12.40;11.13;;;22.90;99.80;;;;;;4969944;28;20077;-68
2022/08/15 00:24:05;;;;;;;12.90;11.60;;;22.90;99.90;;;;;;4978464;28;20105;-69
2022/08/15 00:26:34;;;;;;;12.85;11.55;;;22.90;99.90;;;;;;5004402;28;20051;-68
2022/08/15 00:29:02;;;;;;;14.45;12.25;;;22.90;99.90;;;;;;4989008;28;20078;-67
2022/08/15 00:31:31;;;;;;;15.93;13.23;;;22.80;99.90;;;;;;5026519;28;20053;-67
2022/08/15 00:33:58;;;;;;;15.10;12.57;;;22.70;99.90;;;;;;4991873;28;20129;-67
2022/08/15 00:36:25;;;;;;;14.23;12.70;;;22.70;99.90;;;;;;4969780;28;20054;-67
2022/08/15 00:38:51;;;;;;;13.48;11.90;;;22.60;99.90;;;;;;4969066;28;20042;-67
2022/08/15 00:44:06;;;;;;;14.68;13.05;;;22.60;99.90;;;;;;4969728;28;20051;-68
2022/08/15 00:46:32;;;;;;;14.02;12.43;;;22.40;99.90;;;;;;4989876;28;20061;-68
2022/08/15 00:48:58;;;;;;;14.43;11.98;;;22.30;99.90;;;;;;4984341;28;20491;-68
2022/08/15 00:51:36;;;;;;;14.75;12.45;;;22.30;99.90;;;;;;4962777;28;20054;-67
2022/08/15 00:54:10;;;;;;;16.15;12.70;;;22.40;99.90;;;;;;4987250;28;20458;-69
2022/08/15 00:56:43;;;;;;;15.20;13.25;;;22.30;99.90;;;;;;4969710;28;20132;-67
2022/08/15 00:59:12;;;;;;;15.23;13.25;;;22.10;99.90;;;;;;5004930;28;21098;-69
2022/08/15 01:01:38;;;;;;;16.02;13.13;;;22.00;99.90;;;;;;4992795;28;20053;-68
2022/08/15 01:04:08;;;;;;;14.77;11.85;;;21.90;99.90;;;;;;5010234;28;20046;-69
2022/08/15 01:06:37;;;;;;;15.43;13.45;;;21.90;99.90;;;;;;4977739;28;20131;-67
2022/08/15 01:09:07;;;;;;;14.73;13.15;;;21.90;99.90;;;;;;5018220;28;20058;-67
2022/08/15 01:11:44;;;;;;;15.63;12.90;;;22.00;99.90;;;;;;5022602;28;20046;-67
2022/08/15 01:14:10;;;;;;;15.00;12.70;;;21.70;99.90;;;;;;4983346;28;20058;-67
2022/08/15 01:16:39;;;;;;;15.30;13.70;;;21.40;99.90;;;;;;5010061;28;20051;-68
2022/08/15 01:19:13;;;;;;;15.38;13.30;;;21.70;99.90;;;;;;4976803;28;20078;-67
2022/08/15 01:22:03;;;;;;;16.55;13.35;;;21.80;99.90;;;;;;4974097;28;20457;-67
2022/08/15 01:24:53;;;;;;;15.43;13.40;;;21.90;99.90;;;;;;5006107;28;20066;-69
2022/08/15 01:27:22;;;;;;;15.35;13.35;;;21.90;99.90;;;;;;4982580;28;20051;-67
2022/08/15 01:29:50;;;;;;;14.43;12.93;;;21.90;99.90;;;;;;4993204;28;20100;-67
2022/08/15 01:32:17;;;;;;;17.02;13.77;;;21.90;99.90;;;;;;5005546;28;20054;-67
2022/08/15 01:34:42;;;;;;;15.20;13.40;;;21.90;99.90;;;;;;4975345;28;20051;-68
2022/08/15 01:37:09;;;;;;;16.60;14.10;;;21.90;99.90;;;;;;5010381;28;20042;-68
2022/08/15 01:39:46;;;;;;;17.20;14.75;;;21.90;99.90;;;;;;4987936;28;20054;-68
2022/08/15 01:42:16;;;;;;;15.90;14.25;;;21.90;99.90;;;;;;4975026;28;20050;-67
2022/08/15 01:44:50;;;;;;;19.25;15.15;;;21.70;99.90;;;;;;5009652;28;20050;-67
2022/08/15 01:47:46;;;;;;;18.42;14.32;;;21.70;99.90;;;;;;4977493;28;20058;-69
2022/08/15 01:50:30;;;;;;;16.80;14.52;;;21.70;99.90;;;;;;4980290;28;20050;-67
2022/08/15 01:53:23;;;;;;;16.40;14.65;;;21.70;99.90;;;;;;4991896;28;20150;-68
2022/08/15 01:56:26;;;;;;;18.10;14.73;;;21.70;99.90;;;;;;4992946;28;20499;-68
2022/08/15 01:58:52;;;;;;;18.05;15.00;;;21.70;99.90;;;;;;4988747;28;20050;-68
2022/08/15 02:01:34;;;;;;;16.13;14.45;;;21.70;99.90;;;;;;5015940;28;20137;-68
2022/08/15 02:04:01;;;;;;;19.27;15.30;;;21.70;99.90;;;;;;4991445;28;20053;-67
2022/08/15 02:06:29;;;;;;;17.85;14.73;;;21.80;99.90;;;;;;4999091;28;20512;-67
2022/08/15 02:08:56;;;;;;;20.40;15.02;;;21.80;99.90;;;;;;5012586;28;20061;-68
2022/08/15 02:11:25;;;;;;;19.80;15.70;;;21.80;99.90;;;;;;5009298;28;20101;-68
2022/08/15 02:13:54;;;;;;;17.65;15.15;;;21.90;99.90;;;;;;4992872;28;20456;-67
2022/08/15 02:16:24;;;;;;;16.73;15.05;;;21.90;99.90;;;;;;4993484;28;20199;-68
2022/08/15 02:18:52;;;;;;;18.98;15.70;;;21.80;99.90;;;;;;5024804;28;20473;-67
2022/08/15 02:21:19;;;;;;;19.20;15.50;;;21.90;99.90;;;;;;4972239;28;20413;-67
2022/08/15 02:23:45;;;;;;;18.35;15.18;;;21.90;99.90;;;;;;5022534;28;20057;-68
2022/08/15 02:26:11;;;;;;;18.42;15.38;;;21.90;99.90;;;;;;4993020;28;20094;-67
2022/08/15 02:28:41;;;;;;;17.48;15.57;;;21.90;99.90;;;;;;5001215;28;20089;-68
2022/08/15 02:31:10;;;;;;;17.73;15.38;;;21.90;99.90;;;;;;4975557;28;20057;-66
2022/08/15 02:33:38;;;;;;;19.95;16.00;;;21.90;99.90;;;;;;5025148;28;20046;-67
2022/08/15 02:36:04;;;;;;;18.55;15.13;;;21.80;99.90;;;;;;5008597;28;20073;-67
2022/08/15 02:38:31;;;;;;;18.35;14.75;;;21.80;99.90;;;;;;4984202;28;20046;-67
2022/08/15 02:40:58;;;;;;;18.83;15.10;;;21.80;99.90;;;;;;4976345;28;20058;-67
2022/08/15 02:43:24;;;;;;;18.27;16.08;;;21.80;99.90;;;;;;4998744;28;20062;-67
2022/08/15 02:45:51;;;;;;;17.92;15.57;;;21.80;99.90;;;;;;4998207;28;20101;-67
2022/08/15 02:48:18;;;;;;;19.27;15.50;;;21.80;99.90;;;;;;5025519;28;20046;-68
2022/08/15 02:50:45;;;;;;;19.75;15.48;;;21.70;99.90;;;;;;4988169;28;20084;-67
2022/08/15 02:53:18;;;;;;;18.08;15.57;;;21.70;99.90;;;;;;5008400;28;20501;-68
2022/08/15 02:55:47;;;;;;;20.65;16.40;;;21.80;99.90;;;;;;4975623;28;20050;-67
2022/08/15 02:58:15;;;;;;;18.25;16.05;;;21.80;99.90;;;;;;5008675;28;20519;-67
2022/08/15 03:00:44;;;;;;;20.00;16.95;;;21.80;99.90;;;;;;5001548;28;20061;-67
2022/08/15 03:03:14;;;;;;;22.00;16.10;;;21.70;99.90;;;;;;4991885;28;20042;-67
2022/08/15 03:05:43;;;;;;;21.85;16.05;;;21.60;99.90;;;;;;5003587;28;20039;-69
2022/08/15 03:08:09;;;;;;;18.65;16.40;;;21.70;99.90;;;;;;5009935;28;20046;-69
2022/08/15 03:10:37;;;;;;;18.58;16.58;;;21.60;99.90;;;;;;5019272;28;20133;-67
2022/08/15 03:13:11;;;;;;;18.83;16.08;;;21.50;99.90;;;;;;5008126;28;20574;-67
2022/08/15 03:15:58;;;;;;;23.10;18.13;;;21.50;99.90;;;;;;4999663;28;20101;-67
2022/08/15 03:18:30;;;;;;;21.85;18.25;;;21.30;99.90;;;;;;4995970;28;20089;-67
2022/08/15 03:20:58;;;;;;;21.75;16.58;;;21.20;99.90;;;;;;4986059;28;20057;-67
2022/08/15 03:23:27;;;;;;;20.20;17.15;;;21.10;99.90;;;;;;5007708;28;20057;-68
2022/08/15 03:25:59;;;;;;;18.73;16.73;;;21.10;99.90;;;;;;4991335;28;20042;-67
2022/08/15 03:28:33;;;;;;;22.05;17.10;;;21.00;99.90;;;;;;4993199;28;20061;-67
2022/08/15 03:31:03;;;;;;;19.25;16.75;;;21.00;99.90;;;;;;4970089;28;20490;-69
2022/08/15 03:33:31;;;;;;;17.98;16.10;;;20.90;99.90;;;;;;5007602;28;20045;-68
2022/08/15 03:35:58;;;;;;;17.88;15.98;;;20.90;99.90;;;;;;5023863;28;20050;-67
2022/08/15 03:38:24;;;;;;;18.02;16.13;;;20.80;99.90;;;;;;5024411;28;20041;-68
2022/08/15 03:40:51;;;;;;;20.67;15.52;;;20.70;99.90;;;;;;4998614;28;20050;-69
2022/08/15 03:43:28;;;;;;;20.35;16.38;;;20.70;99.90;;;;;;5008240;28;20508;-68
2022/08/15 03:46:00;;;;;;;19.42;16.52;;;20.80;99.90;;;;;;4969483;28;20115;-67
2022/08/15 03:48:39;;;;;;;19.92;16.80;;;20.80;99.90;;;;;;4976331;28;20062;-67
2022/08/15 03:51:08;;;;;;;21.88;18.38;;;20.90;99.90;;;;;;4982393;28;20053;-68
2022/08/15 03:53:44;;;;;;;19.45;16.77;;;21.00;99.90;;;;;;4996450;28;20046;-69
2022/08/15 03:56:13;;;;;;;20.90;17.85;;;21.10;99.90;;;;;;4994694;28;20527;-68
2022/08/15 03:58:40;;;;;;;22.58;18.00;;;21.00;99.90;;;;;;5007836;28;21160;-68
2022/08/15 04:01:17;;;;;;;22.08;18.60;;;21.00;99.90;;;;;;5018167;28;20114;-71
2022/08/15 04:03:47;;;;;;;24.38;19.77;;;21.00;99.90;;;;;;5017860;28;20054;-68
2022/08/15 04:06:16;;;;;;;21.55;18.70;;;21.00;99.90;;;;;;4976197;28;20042;-68
2022/08/15 04:08:50;;;;;;;23.90;18.70;;;21.00;99.90;;;;;;4980695;28;20050;-68
2022/08/15 04:11:19;;;;;;;22.00;17.88;;;21.00;99.90;;;;;;4997171;28;20042;-69
2022/08/15 04:13:45;;;;;;;20.23;17.50;;;21.00;99.90;;;;;;5018881;28;20113;-68
2022/08/15 04:16:13;;;;;;;20.80;17.48;;;21.10;99.90;;;;;;4974301;28;20125;-68
2022/08/15 04:18:39;;;;;;;21.63;18.30;;;21.10;99.90;;;;;;4982897;28;20095;-68
2022/08/15 04:21:08;;;;;;;26.55;18.98;;;21.10;99.90;;;;;;5003391;28;20504;-69
2022/08/15 04:23:34;;;;;;;23.40;18.75;;;21.10;99.90;;;;;;4974888;28;20042;-67
2022/08/15 04:26:01;;;;;;;21.15;17.92;;;21.10;99.90;;;;;;4974574;28;20085;-68
2022/08/15 04:28:31;;;;;;;20.60;18.30;;;21.10;99.90;;;;;;5020338;28;20045;-68
2022/08/15 04:30:59;;;;;;;22.90;18.33;;;21.20;99.90;;;;;;4974006;28;20042;-68
2022/08/15 04:33:29;;;;;;;23.25;17.58;;;21.20;99.90;;;;;;5020398;28;20065;-68
2022/08/15 04:36:04;;;;;;;23.25;18.52;;;21.20;99.90;;;;;;4986301;28;20058;-68
2022/08/15 04:38:32;;;;;;;20.38;17.60;;;21.20;99.90;;;;;;4989119;28;20042;-69
2022/08/15 04:40:58;;;;;;;20.20;16.17;;;21.20;99.90;;;;;;5017947;28;20587;-68
2022/08/15 04:43:24;;;;;;;22.80;17.50;;;21.20;99.90;;;;;;4994724;28;20046;-68
2022/08/15 04:45:52;;;;;;;22.60;18.98;;;21.10;99.90;;;;;;5009822;28;20046;-68
2022/08/15 04:48:19;;;;;;;23.00;18.98;;;21.10;99.90;;;;;;4976854;28;20492;-68
2022/08/15 04:50:48;;;;;;;21.60;18.52;;;20.90;99.90;;;;;;5019400;28;20049;-69
2022/08/15 04:53:15;;;;;;;22.65;18.85;;;20.80;99.90;;;;;;5011031;28;20177;-69
2022/08/15 04:55:43;;;;;;;19.60;17.50;;;20.70;99.90;;;;;;5010246;28;20133;-68
2022/08/15 04:58:12;;;;;;;18.67;16.30;;;20.80;99.90;;;;;;4993942;28;20052;-68
2022/08/15 05:00:43;;;;;;;19.77;17.30;;;20.80;99.90;;;;;;5012753;28;20137;-68
2022/08/15 05:03:18;;;;;;;20.52;16.90;;;20.80;99.90;;;;;;5016064;28;20073;-68
2022/08/15 05:05:54;;;;;;;21.75;17.20;;;20.90;99.90;;;;;;4994389;28;20408;-68
2022/08/15 05:08:22;;;;;;;18.83;16.83;;;20.90;99.90;;;;;;5010139;28;20054;-70
2022/08/15 05:11:00;;;;;;;23.15;17.80;;;21.00;99.90;;;;;;4978878;28;20514;-70
2022/08/15 05:13:30;;;;;;;19.33;17.33;;;21.00;99.90;;;;;;5005467;28;20101;-68
2022/08/15 05:15:58;;;;;;;20.90;18.40;;;21.10;99.90;;;;;;4994455;28;20054;-68
2022/08/15 05:18:26;;;;;;;21.30;17.77;;;21.00;99.90;;;;;;4993709;28;20050;-68
2022/08/15 05:20:53;;;;;;;21.80;17.73;;;20.80;99.90;;;;;;4979542;28;20400;-68
2022/08/15 05:23:24;;;;;;;20.35;17.92;;;20.90;99.90;;;;;;5016063;28;20057;-68
2022/08/15 05:25:55;;;;;;;20.60;18.38;;;21.00;99.90;;;;;;4991272;28;20053;-69
2022/08/15 05:28:22;;;;;;;22.80;18.85;;;21.10;99.90;;;;;;5003758;28;20050;-68
2022/08/15 05:30:50;;;;;;;21.83;18.85;;;21.10;99.90;;;;;;5009877;28;20046;-69
2022/08/15 05:33:19;;;;;;;24.08;18.65;;;21.20;99.90;;;;;;5019331;28;20046;-69
2022/08/15 05:35:49;;;;;;;21.63;17.75;;;21.30;99.90;;;;;;4993695;28;20078;-68
2022/08/15 05:38:40;;;;;;;20.95;17.95;;;21.40;99.90;;;;;;4976671;28;20768;-68
2022/08/15 05:41:37;;;;;;;23.50;18.25;;;21.50;99.90;;;;;;4992697;28;20065;-69
2022/08/15 05:44:28;;;;;;;21.33;18.65;;;21.60;99.90;;;;;;5001859;28;20058;-69
2022/08/15 05:47:17;;;;;;;21.60;18.17;;;21.60;99.90;;;;;;5009979;28;20158;-68
2022/08/15 05:49:54;;;;;;;20.50;18.30;;;21.60;99.90;;;;;;4976552;28;20085;-68
2022/08/15 05:52:35;;;;;;;23.05;18.08;;;21.60;99.90;;;;;;5011602;28;20046;-69
2022/08/15 05:55:30;;;;;;;22.83;18.13;;;21.70;99.90;;;;;;5012900;28;20034;-68
2022/08/15 05:58:21;;;;;;;22.52;18.75;;;21.70;99.90;;;;;;5001639;28;20038;-69
2022/08/15 06:01:02;;;;;;;21.93;18.27;;;21.80;99.90;;;;;;5009857;28;20133;-68
2022/08/15 06:03:29;;;;;;;21.95;18.85;;;21.80;99.90;;;;;;5016521;28;20429;-69
2022/08/15 06:05:59;;;;;;;21.27;18.17;;;21.90;99.90;;;;;;5009570;28;20148;-69
2022/08/15 06:08:29;;;;;;;23.55;18.50;;;21.90;99.90;;;;;;5009103;28;20200;-69
2022/08/15 06:11:15;;;;;;;21.33;17.77;;;22.00;99.90;;;;;;4977205;28;20129;-68
2022/08/15 06:13:49;;;;;;;24.00;18.73;;;22.10;99.90;;;;;;4993151;28;20045;-68
2022/08/15 06:16:36;;;;;;;24.13;18.60;;;22.10;99.90;;;;;;4976276;28;20077;-70
2022/08/15 06:19:06;;;;;;;20.83;17.75;;;22.20;99.90;;;;;;5008349;28;20485;-69
2022/08/15 06:22:02;;;;;;;21.90;18.23;;;22.20;99.90;;;;;;5025897;28;20102;-69
2022/08/15 06:24:36;;;;;;;20.25;17.95;;;22.30;99.90;;;;;;5013412;28;20121;-69
2022/08/15 06:27:21;;;;;;;19.13;17.13;;;22.50;99.90;;;;;;5011021;28;20042;-69
2022/08/15 06:30:12;;;;;;;20.27;17.95;;;22.70;99.90;;;;;;4993832;28;20057;-70
2022/08/15 06:32:53;;;;;;;22.58;18.60;;;22.90;99.90;;;;;;4976840;28;20053;-69
2022/08/15 06:35:45;;;;;;;18.75;16.75;;;23.10;99.90;;;;;;4983557;28;20504;-70
2022/08/15 06:38:27;;;;;;;17.85;15.88;;;23.40;99.90;;;;;;4988988;28;20077;-69
2022/08/15 06:41:01;;;;;;;20.48;15.60;;;23.70;99.90;;;;;;4972232;28;20474;-68
2022/08/15 06:43:28;;;;;;;16.27;14.52;;;24.00;99.90;;;;;;5012272;28;20115;-69
2022/08/15 06:45:56;;;;;;;17.65;13.70;;;24.30;99.90;;;;;;5026086;28;20057;-70
2022/08/15 06:48:31;;;;;;;13.80;12.25;;;24.40;99.90;;;;;;5024585;28;20050;-68
2022/08/15 06:51:00;;;;;;;14.65;13.15;;;24.50;99.90;;;;;;4990924;28;20129;-69
2022/08/15 06:53:37;;;;;;;14.15;12.10;;;24.50;99.90;;;;;;4992486;28;20104;-69
2022/08/15 06:56:12;;;;;;;14.68;13.13;;;24.60;99.90;;;;;;4978239;28;20104;-69
2022/08/15 06:58:58;;;;;;;15.20;12.25;;;24.50;99.90;;;;;;5032690;28;20447;-70
2022/08/15 07:01:48;;;;;;;14.02;12.63;;;24.50;99.90;;;;;;5024006;28;20054;-68
2022/08/15 07:04:16;;;;;;;14.48;12.95;;;24.40;99.90;;;;;;4992277;28;20049;-69
2022/08/15 07:07:04;;;;;;;14.02;12.02;;;24.50;99.90;;;;;;5012576;28;20041;-71
2022/08/15 07:09:55;;;;;;;15.07;13.57;;;24.50;99.90;;;;;;5002099;28;20053;-67
2022/08/15 07:13:02;;;;;;;19.13;13.73;;;24.40;99.90;;;;;;4992251;28;20149;-67
2022/08/15 07:15:52;;;;;;;18.67;13.90;;;24.40;99.90;;;;;;5007791;28;20496;-68
2022/08/15 07:18:44;;;;;;;15.23;13.55;;;24.40;99.90;;;;;;4972517;28;20062;-67
2022/08/15 07:21:13;;;;;;;17.67;15.18;;;24.40;99.90;;;;;;5012589;28;20047;-68
2022/08/15 07:24:24;;;;;;;17.50;15.63;;;24.40;99.90;;;;;;4975648;28;20061;-68
2022/08/15 07:26:52;;;;;;;20.20;16.88;;;24.40;99.90;;;;;;5006018;28;20062;-68
2022/08/15 07:29:40;;;;;;;19.73;15.80;;;24.40;99.90;;;;;;5006979;28;20054;-68
2022/08/15 07:32:18;;;;;;;19.00;16.42;;;24.40;99.90;;;;;;5008303;28;20080;-67
2022/08/15 07:35:14;;;;;;;17.77;15.88;;;24.60;99.90;;;;;;4972167;28;20396;-69
2022/08/15 07:37:56;;;;;;;17.83;15.88;;;24.70;99.90;;;;;;5007999;28;20059;-68
2022/08/15 07:40:25;;;;;;;20.52;16.13;;;25.10;99.90;;;;;;4995942;28;20081;-67
2022/08/15 07:42:52;;;;;;;16.55;14.75;;;25.40;99.90;;;;;;5007842;28;20050;-69
2022/08/15 07:45:32;;;;;;;17.20;15.40;;;25.70;99.90;;;;;;4975331;28;20046;-68
2022/08/15 07:48:05;;;;;;;17.88;15.25;;;25.90;99.90;;;;;;4918190;28;20061;-69
2022/08/15 07:50:39;;;;;;;19.40;15.18;;;26.10;99.90;;;;;;5002701;28;20057;-68
2022/08/15 07:53:23;;;;;;;17.02;14.25;;;26.40;99.90;;;;;;5011130;28;20042;-69
2022/08/15 07:56:14;;;;;;;15.70;14.10;;;26.60;99.90;;;;;;5010857;28;20054;-68
2022/08/15 07:58:42;;;;;;;17.25;13.82;;;26.90;99.90;;;;;;5007702;28;20383;-69
2022/08/15 08:01:20;;;;;;;15.38;13.77;;;27.10;99.90;;;;;;5006954;28;20055;-69
2022/08/15 08:04:09;;;;;;;16.05;13.25;;;27.20;99.20;;;;;;4988386;28;20056;-68
2022/08/15 08:07:08;;;;;;;13.02;11.73;;;27.40;99.00;;;;;;5019640;28;20046;-69
2022/08/15 08:09:54;;;;;;;12.68;11.38;;;27.60;96.10;;;;;;4997961;28;20104;-67
2022/08/15 08:12:30;;;;;;;12.95;10.88;;;27.80;94.70;;;;;;5008543;28;20041;-69
2022/08/15 08:15:17;;;;;;;12.55;11.13;;;27.90;95.00;;;;;;5009725;28;20484;-70
2022/08/15 08:18:18;;;;;;;11.15;9.95;;;27.90;93.80;;;;;;4993833;28;20077;-70
2022/08/15 08:20:58;;;;;;;11.35;9.57;;;28.00;92.40;;;;;;4999299;28;20452;-72
2022/08/15 08:23:45;;;;;;;9.93;8.93;;;28.20;91.90;;;;;;5012663;28;20516;-68
2022/08/15 08:26:50;;;;;;;9.77;8.70;;;28.20;91.70;;;;;;4993942;28;20053;-69
2022/08/15 08:29:45;;;;;;;9.45;8.35;;;28.30;90.00;;;;;;5009318;28;20050;-69
2022/08/15 08:32:26;;;;;;;8.82;7.93;;;28.50;90.80;;;;;;5021368;28;20137;-72
2022/08/15 08:35:24;;;;;;;9.65;7.47;;;28.70;86.60;;;;;;5009026;28;20078;-71
2022/08/15 08:38:10;;;;;;;8.55;7.43;;;28.60;85.00;;;;;;5010226;28;20057;-71
2022/08/15 08:43:46;;;;;;;8.85;8.05;;;28.60;83.60;;;;;;5016622;28;20061;-73
2022/08/15 08:46:32;;;;;;;8.93;8.02;;;28.60;85.70;;;;;;5010635;28;20130;-69
2022/08/15 08:49:08;;;;;;;9.55;8.60;;;28.90;85.10;;;;;;5014908;28;20064;-69
2022/08/15 08:51:44;;;;;;;8.93;8.02;;;29.10;84.90;;;;;;5016572;28;20220;-71
2022/08/15 08:54:22;;;;;;;9.52;7.32;;;29.30;84.00;;;;;;5010481;28;20065;-71
2022/08/15 08:56:53;;;;;;;8.15;7.35;;;29.40;84.10;;;;;;5009863;28;20436;-71
2022/08/15 08:59:46;;;;;;;10.75;7.75;;;29.40;83.40;;;;;;5014437;28;20112;-80
2022/08/15 09:02:17;;;;;;;8.45;7.63;;;29.40;83.30;;;;;;5015846;28;20050;-70
2022/08/15 09:04:50;;;;;;;7.95;7.15;;;29.40;82.80;;;;;;5010170;28;20046;-72
2022/08/15 09:07:31;;;;;;;8.48;6.55;;;29.50;82.20;;;;;;4993935;28;20050;-71
2022/08/15 09:10:00;;;;;;;7.53;6.72;;;29.40;79.00;;;;;;5012346;28;20050;-68
2022/08/15 09:15:29;;;;;;;8.70;6.85;;;29.30;80.00;;;;;;5014210;28;20140;-69
2022/08/15 09:18:02;;;;;;;7.30;6.57;;;29.30;79.00;;;;;;5012755;28;20049;-70
2022/08/15 09:20:33;;;;;;;8.15;7.10;;;29.30;76.10;;;;;;5014398;28;20496;-70
2022/08/15 09:23:01;;;;;;;9.55;6.50;;;29.40;77.30;;;;;;4997687;28;20050;-81
2022/08/15 09:25:29;;;;;;;7.43;6.68;;;29.60;78.00;;;;;;5013072;28;20381;-81
2022/08/15 09:28:16;;;;;;;6.85;6.15;;;29.80;77.90;;;;;;5012606;28;20061;-84
2022/08/15 09:30:44;;;;;;;7.90;6.47;;;30.10;77.00;;;;;;5006566;28;20040;-83
2022/08/15 09:33:33;;;;;;;7.45;6.25;;;30.30;76.60;;;;;;5017367;28;20082;-80
2022/08/15 09:36:04;;;;;;;8.05;6.40;;;30.40;75.60;;;;;;5013676;28;20061;-74
2022/08/15 09:38:37;;;;;;;6.90;6.30;;;30.70;74.90;;;;;;5013127;28;20479;-77
2022/08/15 09:41:28;;;;;;;7.25;6.47;;;30.90;74.30;;;;;;5016328;28;20053;-72
2022/08/15 09:44:20;;;;;;;6.80;6.18;;;31.00;72.00;;;;;;5013448;28;20513;-73
2022/08/15 09:47:13;;;;;;;6.80;6.20;;;31.30;73.30;;;;;;5000012;28;20126;-72
2022/08/15 09:49:55;;;;;;;6.70;6.10;;;31.50;70.40;;;;;;5017705;28;20057;-73
2022/08/15 09:52:47;;;;;;;6.32;5.82;;;31.40;70.10;;;;;;5013047;28;20101;-71
2022/08/15 09:55:46;;;;;;;6.97;6.22;;;31.40;66.10;;;;;;5002047;28;20471;-70
2022/08/15 09:58:22;;;;;;;7.72;6.82;;;31.60;66.40;;;;;;5012542;28;20136;-69
2022/08/15 10:01:14;;;;;;;8.55;6.80;;;31.80;67.50;;;;;;5013137;28;20041;-69
2022/08/15 10:03:51;;;;;;;6.93;6.22;;;31.90;65.90;;;;;;5019220;28;20057;-71
2022/08/15 10:06:25;;;;;;;7.13;6.43;;;32.10;65.50;;;;;;5018392;28;20400;-71
2022/08/15 10:08:51;;;;;;;6.55;5.95;;;32.20;65.70;;;;;;5013424;28;20045;-70
2022/08/15 10:11:46;;;;;;;6.95;6.35;;;32.40;65.20;;;;;;5013711;28;20389;-70
2022/08/15 10:14:21;;;;;;;7.30;6.60;;;32.40;61.50;;;;;;5007365;28;20058;-69
2022/08/15 10:16:53;;;;;;;6.68;5.57;;;32.60;62.60;;;;;;5012576;28;20481;-70
2022/08/15 10:19:29;;;;;;;6.70;6.05;;;32.60;62.40;;;;;;5008938;28;20111;-71
2022/08/15 10:22:00;;;;;;;7.25;5.90;;;32.70;62.00;;;;;;5012532;28;20053;-70
2022/08/15 10:24:36;;;;;;;8.70;6.50;;;32.80;62.60;;;;;;5011081;28;20054;-73
2022/08/15 10:27:17;;;;;;;7.15;6.47;;;32.80;61.20;;;;;;5002616;28;20132;-70
2022/08/15 10:29:50;;;;;;;7.10;6.50;;;32.60;61.00;;;;;;5018678;28;20516;-69
2022/08/15 10:32:24;;;;;;;7.10;6.50;;;32.60;62.10;;;;;;4995617;28;20487;-69
2022/08/15 10:34:59;;;;;;;7.10;6.43;;;33.00;60.90;;;;;;5013929;28;20049;-71
2022/08/15 10:37:30;;;;;;;7.10;5.97;;;33.00;60.10;;;;;;4994826;28;20056;-72
2022/08/15 10:40:34;;;;;;;7.10;6.32;;;32.70;59.20;;;;;;4995637;28;20050;-69
2022/08/15 10:43:11;;;;;;;7.72;6.30;;;32.40;57.50;;;;;;5012364;28;20068;-70
2022/08/15 10:46:05;;;;;;;7.22;6.07;;;32.30;60.30;;;;;;5015815;28;20054;-70
2022/08/15 10:48:52;;;;;;;6.38;5.78;;;32.20;58.90;;;;;;5037609;28;20137;-70
2022/08/15 10:51:34;;;;;;;6.68;6.07;;;32.30;57.20;;;;;;5011588;28;20057;-71
2022/08/15 10:54:20;;;;;;;6.47;5.93;;;32.20;57.50;;;;;;4988329;28;20077;-70
2022/08/15 10:56:46;;;;;;;6.07;5.57;;;32.10;58.40;;;;;;5012063;28;20556;-70
2022/08/15 10:59:16;;;;;;;7.30;6.60;;;32.20;58.80;;;;;;5011325;28;20125;-69
2022/08/15 11:01:44;;;;;;;5.57;5.07;;;32.20;58.90;;;;;;4995386;28;20058;-70
2022/08/15 11:04:35;;;;;;;6.88;5.70;;;32.30;59.00;;;;;;5011854;28;20058;-70
2022/08/15 11:07:16;;;;;;;6.20;5.70;;;32.40;57.70;;;;;;5016047;28;20046;-70
2022/08/15 11:09:50;;;;;;;7.13;6.05;;;32.50;58.60;;;;;;5011478;28;20049;-70
2022/08/15 11:12:19;;;;;;;6.90;6.30;;;32.80;58.00;;;;;;5011543;28;20046;-71
2022/08/15 11:14:55;;;;;;;7.45;5.90;;;33.00;57.40;;;;;;4996959;28;20053;-71
2022/08/15 11:17:27;;;;;;;6.63;6.03;;;33.20;57.70;;;;;;5013433;28;20049;-71
2022/08/15 11:20:14;;;;;;;8.77;6.35;;;33.30;57.50;;;;;;4995391;28;20049;-71
2022/08/15 11:23:10;;;;;;;7.63;6.50;;;33.10;57.00;;;;;;5010877;28;20065;-72
2022/08/15 11:25:43;;;;;;;9.55;8.55;;;32.90;57.10;;;;;;5031077;28;20125;-77
2022/08/15 11:28:18;;;;;;;10.77;9.40;;;32.50;59.20;;;;;;5009623;28;20049;-77
2022/08/15 11:30:45;;;;;;;10.80;9.48;;;31.80;60.90;;;;;;5021846;28;20050;-79
2022/08/15 11:33:26;;;;;;;10.65;9.63;;;31.40;62.50;;;;;;5011217;28;20042;-75
2022/08/15 11:36:09;;;;;;;10.90;9.77;;;31.00;63.50;;;;;;5015948;28;20053;-76
2022/08/15 11:38:39;;;;;;;10.40;9.07;;;30.80;63.80;;;;;;5011111;28;20686;-77
2022/08/15 11:41:06;;;;;;;10.15;9.15;;;30.70;64.30;;;;;;5010945;28;20551;-77
2022/08/15 11:43:32;;;;;;;11.02;9.82;;;30.50;64.20;;;;;;5011315;28;20124;-75
2022/08/15 11:45:59;;;;;;;10.45;9.45;;;30.50;64.60;;;;;;5020945;28;20051;-76
2022/08/15 11:48:29;;;;;;;10.43;9.05;;;30.40;64.80;;;;;;4994270;28;20057;-76
2022/08/15 11:50:59;;;;;;;11.82;9.68;;;30.30;65.00;;;;;;4994639;28;20054;-75
2022/08/15 11:53:38;;;;;;;10.70;9.70;;;30.30;65.50;;;;;;5011095;28;20053;-72
2022/08/15 11:56:04;;;;;;;12.20;10.80;;;30.30;66.00;;;;;;5007972;28;20477;-76
2022/08/15 11:58:38;;;;;;;11.95;10.63;;;30.10;66.40;;;;;;4999494;28;20077;-76
2022/08/15 12:01:44;;;;;;;19.35;11.70;;;30.00;67.40;;;;;;5012778;28;20054;-74
2022/08/15 12:04:12;;;;;;;34.63;13.52;;;30.10;69.00;;;;;;5012705;28;20048;-76
2022/08/15 12:06:40;;;;;;;13.13;11.77;;;30.10;68.00;;;;;;4983085;28;20050;-75
2022/08/15 12:09:22;;;;;;;13.13;11.70;;;30.00;68.40;;;;;;4979127;28;20100;-75
2022/08/15 12:11:50;;;;;;;14.07;12.57;;;29.80;70.00;;;;;;5006278;28;20046;-75
2022/08/15 12:14:23;;;;;;;15.35;12.77;;;29.70;69.60;;;;;;4997873;28;20054;-75
2022/08/15 12:16:52;;;;;;;16.90;12.73;;;29.50;70.00;;;;;;4994428;28;20241;-75
2022/08/15 12:19:47;;;;;;;14.73;13.23;;;29.40;69.80;;;;;;5010149;28;20496;-73
2022/08/15 12:22:32;;;;;;;13.60;12.20;;;29.30;71.00;;;;;;4993836;28;20112;-70
2022/08/15 12:24:58;;;;;;;17.05;13.13;;;29.20;70.80;;;;;;5010226;28;20124;-72
2022/08/15 12:27:24;;;;;;;14.95;13.45;;;29.20;70.40;;;;;;5019665;28;20057;-75
2022/08/15 12:29:50;;;;;;;16.40;14.48;;;29.10;70.40;;;;;;5016120;28;20058;-72
2022/08/15 12:32:17;;;;;;;14.85;13.30;;;29.20;70.80;;;;;;4994370;28;20073;-72
2022/08/15 12:34:48;;;;;;;17.65;13.93;;;29.10;71.10;;;;;;4991719;28;20051;-73
2022/08/15 12:37:19;;;;;;;17.48;14.88;;;29.20;71.50;;;;;;4993869;28;20045;-75
2022/08/15 12:39:49;;;;;;;17.58;13.15;;;29.10;71.10;;;;;;5009359;28;20042;-77
2022/08/15 12:42:23;;;;;;;19.47;14.83;;;29.20;71.10;;;;;;5017135;28;20492;-74
2022/08/15 12:44:52;;;;;;;15.57;13.93;;;29.20;70.90;;;;;;4994387;28;20088;-74
2022/08/15 12:47:18;;;;;;;18.27;14.63;;;29.20;71.20;;;;;;5010066;28;20129;-73
2022/08/15 12:49:44;;;;;;;17.00;14.00;;;29.30;71.00;;;;;;5029900;28;20500;-71
2022/08/15 12:52:11;;;;;;;17.08;13.27;;;29.40;71.20;;;;;;5015504;28;20463;-76
2022/08/15 12:54:37;;;;;;;18.90;13.32;;;29.60;71.00;;;;;;5013098;28;20046;-77
2022/08/15 12:57:04;;;;;;;19.65;15.27;;;29.80;70.80;;;;;;5018061;28;20088;-76
2022/08/15 12:59:31;;;;;;;17.17;14.75;;;30.00;70.20;;;;;;4996918;28;20081;-76
2022/08/15 13:01:57;;;;;;;20.35;14.80;;;30.10;70.40;;;;;;4993631;28;20046;-76
2022/08/15 13:04:25;;;;;;;18.23;15.13;;;30.30;70.00;;;;;;5011339;28;20045;-76
2022/08/15 13:06:57;;;;;;;17.60;14.13;;;30.40;69.90;;;;;;5015930;28;20395;-75
2022/08/15 13:09:27;;;;;;;17.63;15.82;;;30.50;68.60;;;;;;5018650;28;20115;-75
2022/08/15 13:11:54;;;;;;;16.00;14.10;;;30.50;68.60;;;;;;5014094;28;20046;-75
2022/08/15 13:14:20;;;;;;;16.65;13.80;;;30.60;68.70;;;;;;5013716;28;20147;-75
2022/08/15 13:16:48;;;;;;;17.77;13.90;;;30.80;68.90;;;;;;5013310;28;20416;-75
2022/08/15 13:19:18;;;;;;;18.73;14.80;;;31.00;68.50;;;;;;5037277;28;20073;-75